createdAt,value
2022-11-16T00:00:05.786Z,4.80
2022-11-16T00:02:35.988Z,4.30
2022-11-16T00:05:04.321Z,4.07
2022-11-16T00:07:32.428Z,4.73
2022-11-16T00:10:00.576Z,4.10
2022-11-16T00:12:28.806Z,4.67
2022-11-16T00:14:56.853Z,4.27
2022-11-16T00:17:24.857Z,4.30
2022-11-16T00:19:54.246Z,3.47
2022-11-16T00:22:22.336Z,4.10
2022-11-16T00:24:50.371Z,3.40
2022-11-16T00:27:18.405Z,3.70
2022-11-16T00:29:46.547Z,3.90
2022-11-16T00:32:14.669Z,3.57
2022-11-16T00:34:42.689Z,3.70
2022-11-16T00:37:12.045Z,3.80
2022-11-16T00:39:40.180Z,4.00
2022-11-16T00:42:08.259Z,3.03
2022-11-16T00:44:36.308Z,4.03
2022-11-16T00:47:04.329Z,4.50
2022-11-16T00:49:32.406Z,3.87
2022-11-16T00:52:00.397Z,4.17
2022-11-16T00:54:29.775Z,4.40
2022-11-16T00:56:57.748Z,4.13
2022-11-16T00:59:25.768Z,3.93
2022-11-16T01:01:53.780Z,4.37
2022-11-16T01:04:21.941Z,4.33
2022-11-16T01:06:50.004Z,4.20
2022-11-16T01:09:18.019Z,5.17
2022-11-16T01:12:04.878Z,4.30
2022-11-16T01:14:32.866Z,3.77
2022-11-16T01:17:01.002Z,4.60
2022-11-16T01:19:29.035Z,4.47
2022-11-16T01:21:57.569Z,4.33
2022-11-16T01:24:26.175Z,4.20
2022-11-16T01:26:56.888Z,3.90
2022-11-16T01:29:26.243Z,4.20
2022-11-16T01:31:54.222Z,4.00
2022-11-16T01:34:22.986Z,4.57
2022-11-16T01:36:51.001Z,4.57
2022-11-16T01:39:19.501Z,4.13
2022-11-16T01:41:47.574Z,4.30
2022-11-16T01:44:57.770Z,3.50
2022-11-16T01:47:25.815Z,4.00
2022-11-16T01:49:57.563Z,3.50
2022-11-16T01:52:30.024Z,4.30
2022-11-16T01:54:58.630Z,4.70
2022-11-16T01:57:32.591Z,4.60
2022-11-16T02:00:06.554Z,4.20
2022-11-16T02:02:34.758Z,4.37
2022-11-16T02:05:03.999Z,3.87
2022-11-16T02:08:10.047Z,4.40
2022-11-16T02:10:51.381Z,3.43
2022-11-16T02:13:34.209Z,3.90
2022-11-16T02:16:15.785Z,4.17
2022-11-16T02:18:54.465Z,4.20
2022-11-16T02:21:35.270Z,4.13
2022-11-16T02:24:36.180Z,3.50
2022-11-16T02:27:37.689Z,5.00
2022-11-16T02:30:08.092Z,3.50
2022-11-16T02:32:40.466Z,4.60
2022-11-16T02:35:14.570Z,4.43
2022-11-16T02:37:48.188Z,4.63
2022-11-16T02:40:18.775Z,4.67
2022-11-16T02:42:50.977Z,4.00
2022-11-16T02:45:23.449Z,3.87
2022-11-16T02:47:53.870Z,5.23
2022-11-16T02:50:24.227Z,4.40
2022-11-16T02:52:52.317Z,3.73
2022-11-16T02:55:20.428Z,4.00
2022-11-16T02:57:52.401Z,3.57
2022-11-16T03:00:24.925Z,4.83
2022-11-16T03:03:04.329Z,4.13
2022-11-16T03:05:36.410Z,3.40
2022-11-16T03:08:11.387Z,4.10
2022-11-16T03:10:59.647Z,2.80
2022-11-16T03:13:31.407Z,3.13
2022-11-16T03:16:03.755Z,3.40
2022-11-16T03:18:32.007Z,3.13
2022-11-16T03:21:10.895Z,3.30
2022-11-16T03:23:39.111Z,3.10
2022-11-16T03:26:11.507Z,3.10
2022-11-16T03:28:44.381Z,3.43
2022-11-16T03:31:16.589Z,3.60
2022-11-16T03:33:50.095Z,3.57
2022-11-16T03:36:24.774Z,3.63
2022-11-16T03:38:53.899Z,3.10
2022-11-16T03:41:24.073Z,2.93
2022-11-16T03:43:53.736Z,3.63
2022-11-16T03:46:23.146Z,3.57
2022-11-16T03:48:58.029Z,3.47
2022-11-16T03:51:26.616Z,3.60
2022-11-16T03:53:54.797Z,3.90
2022-11-16T03:56:23.018Z,3.20
2022-11-16T03:58:51.092Z,4.07
2022-11-16T04:01:19.330Z,3.70
2022-11-16T04:03:48.760Z,3.60
2022-11-16T04:06:34.729Z,3.40
2022-11-16T04:09:20.229Z,3.63
2022-11-16T04:12:05.991Z,3.47
2022-11-16T04:14:52.075Z,2.90
2022-11-16T04:17:38.111Z,2.77
2022-11-16T04:20:27.585Z,2.97
2022-11-16T04:23:18.801Z,2.30
2022-11-16T04:25:48.683Z,2.47
2022-11-16T04:28:17.517Z,2.30
2022-11-16T04:31:06.343Z,2.80
2022-11-16T04:33:52.438Z,2.70
2022-11-16T04:36:39.372Z,2.40
2022-11-16T04:39:07.632Z,2.93
2022-11-16T04:41:55.248Z,3.03
2022-11-16T04:44:28.767Z,2.97
2022-11-16T04:47:08.742Z,2.60
2022-11-16T04:49:36.757Z,3.47
2022-11-16T04:52:06.229Z,2.53
2022-11-16T04:54:34.261Z,3.10
2022-11-16T04:57:02.272Z,3.00
2022-11-16T04:59:30.272Z,2.80
2022-11-16T05:02:10.190Z,3.10
2022-11-16T05:04:39.518Z,2.73
2022-11-16T05:07:11.944Z,2.93
2022-11-16T05:09:43.000Z,2.87
2022-11-16T05:12:11.816Z,3.13
2022-11-16T05:14:39.789Z,3.40
2022-11-16T05:17:07.823Z,3.10
2022-11-16T05:19:53.280Z,3.23
2022-11-16T05:22:22.645Z,3.20
2022-11-16T05:24:50.705Z,3.00
2022-11-16T05:27:20.100Z,3.33
2022-11-16T05:29:49.539Z,2.70
2022-11-16T05:32:18.430Z,4.20
2022-11-16T05:34:46.816Z,3.30
2022-11-16T05:37:15.251Z,3.20
2022-11-16T05:39:44.728Z,4.07
2022-11-16T05:42:12.825Z,3.53
2022-11-16T05:44:40.865Z,3.40
2022-11-16T05:47:08.934Z,3.33
2022-11-16T05:49:37.026Z,3.67
2022-11-16T05:52:05.127Z,3.50
2022-11-16T05:54:33.142Z,3.40
2022-11-16T05:57:02.477Z,4.90
2022-11-16T05:59:30.505Z,4.07
2022-11-16T06:01:58.525Z,3.67
2022-11-16T06:04:26.737Z,3.80
2022-11-16T06:06:54.802Z,3.83
2022-11-16T06:09:22.892Z,3.87
2022-11-16T06:11:50.962Z,4.17
2022-11-16T06:14:20.362Z,4.17
2022-11-16T06:16:48.366Z,4.40
2022-11-16T06:19:16.386Z,3.77
2022-11-16T06:21:44.474Z,4.37
2022-11-16T06:24:12.456Z,4.20
2022-11-16T06:26:40.517Z,4.03
2022-11-16T06:29:08.563Z,4.30
2022-11-16T06:31:37.989Z,3.97
2022-11-16T06:34:06.070Z,4.47
2022-11-16T06:36:34.127Z,3.97
2022-11-16T06:39:02.099Z,4.17
2022-11-16T06:41:30.261Z,4.07
2022-11-16T06:43:58.265Z,3.57
2022-11-16T06:46:26.595Z,3.93
2022-11-16T06:48:57.515Z,3.10
2022-11-16T06:51:26.061Z,3.80
2022-11-16T06:53:54.110Z,3.03
2022-11-16T06:56:22.196Z,3.33
2022-11-16T06:58:53.324Z,3.63
2022-11-16T07:01:21.998Z,2.90
2022-11-16T07:03:49.996Z,4.10
2022-11-16T07:06:19.590Z,4.27
2022-11-16T07:08:47.534Z,2.63
2022-11-16T07:11:15.734Z,3.13
2022-11-16T07:13:43.735Z,2.73
2022-11-16T07:16:13.048Z,2.67
2022-11-16T07:18:42.328Z,2.67
2022-11-16T07:21:12.215Z,2.50
2022-11-16T07:23:41.994Z,2.50
2022-11-16T07:26:11.159Z,2.40
2022-11-16T07:28:43.411Z,1.90
2022-11-16T07:31:16.288Z,2.23
2022-11-16T07:33:44.379Z,2.00
2022-11-16T07:36:14.762Z,2.17
2022-11-16T07:38:44.312Z,2.53
2022-11-16T07:41:14.898Z,2.13
2022-11-16T07:43:46.104Z,2.10
2022-11-16T07:49:11.128Z,1.20
2022-11-16T07:51:39.645Z,1.47
2022-11-16T07:54:09.237Z,1.20
2022-11-16T07:56:37.269Z,1.00
2022-11-16T07:59:05.983Z,1.10
2022-11-16T08:01:34.518Z,0.93
2022-11-16T08:04:02.814Z,1.17
2022-11-16T08:06:32.415Z,1.60
2022-11-16T08:09:00.824Z,1.40
2022-11-16T08:11:30.279Z,1.57
2022-11-16T08:13:58.357Z,1.20
2022-11-16T08:16:26.407Z,1.20
2022-11-16T08:18:54.411Z,1.50
2022-11-16T08:21:22.444Z,1.23
2022-11-16T08:23:55.188Z,0.93
2022-11-16T08:26:26.126Z,1.30
2022-11-16T08:28:57.182Z,0.90
2022-11-16T08:31:27.762Z,1.53
2022-11-16T08:33:56.611Z,1.50
2022-11-16T08:36:24.924Z,1.50
2022-11-16T08:38:53.664Z,1.10
2022-11-16T08:41:22.637Z,1.10
2022-11-16T08:43:53.256Z,1.10
2022-11-16T08:46:22.928Z,1.20
2022-11-16T08:48:50.932Z,0.80
2022-11-16T08:51:20.376Z,1.30
2022-11-16T08:53:49.703Z,1.27
2022-11-16T08:56:19.171Z,1.10
2022-11-16T08:58:50.285Z,1.10
2022-11-16T09:01:23.717Z,0.90
2022-11-16T09:03:53.459Z,1.30
2022-11-16T09:06:22.661Z,1.10
2022-11-16T09:08:51.074Z,1.30
2022-11-16T09:11:21.725Z,1.20
2022-11-16T09:13:51.463Z,1.10
2022-11-16T09:16:21.066Z,1.50
2022-11-16T09:18:51.788Z,1.40
2022-11-16T09:21:20.610Z,0.90
2022-11-16T09:23:48.704Z,1.30
2022-11-16T09:26:19.083Z,1.30
2022-11-16T09:28:47.114Z,1.10
2022-11-16T09:31:18.985Z,1.07
2022-11-16T09:33:52.511Z,1.30
2022-11-16T09:36:21.408Z,0.90
2022-11-16T09:39:25.796Z,1.00
2022-11-16T09:41:56.813Z,0.90
2022-11-16T09:44:47.594Z,1.60
2022-11-16T09:47:19.543Z,1.20
2022-11-16T09:49:59.723Z,0.90
2022-11-16T09:52:37.915Z,1.10
2022-11-16T09:55:22.289Z,1.40
2022-11-16T09:57:53.527Z,8.57
2022-11-16T10:00:23.709Z,2.30
2022-11-16T10:03:03.538Z,1.80
2022-11-16T10:05:44.480Z,1.10
2022-11-16T10:08:17.370Z,1.10
2022-11-16T10:10:55.827Z,0.97
2022-11-16T10:13:37.710Z,1.00
2022-11-16T10:16:12.807Z,0.87
2022-11-16T10:18:53.288Z,1.10
2022-11-16T10:21:37.278Z,0.80
2022-11-16T10:24:25.485Z,0.93
2022-11-16T10:27:05.852Z,0.97
2022-11-16T10:29:46.863Z,1.20
2022-11-16T10:32:19.829Z,0.80
2022-11-16T10:34:52.727Z,0.83
2022-11-16T10:37:23.353Z,0.87
2022-11-16T10:39:54.153Z,2.97
2022-11-16T10:42:28.824Z,1.37
2022-11-16T10:45:18.187Z,0.93
2022-11-16T10:47:55.805Z,0.90
2022-11-16T10:50:34.033Z,0.83
2022-11-16T10:53:04.549Z,0.70
2022-11-16T10:55:38.179Z,0.70
2022-11-16T10:58:07.668Z,0.83
2022-11-16T11:00:47.802Z,0.90
2022-11-16T11:03:16.349Z,1.30
2022-11-16T11:05:50.801Z,0.93
2022-11-16T11:08:31.348Z,0.90
2022-11-16T11:11:49.495Z,0.73
2022-11-16T11:14:17.767Z,1.00
2022-11-16T11:16:45.786Z,1.00
2022-11-16T11:19:25.096Z,1.20
2022-11-16T11:21:58.345Z,1.30
2022-11-16T11:24:44.026Z,0.97
2022-11-16T11:27:13.790Z,0.80
2022-11-16T11:29:43.785Z,1.20
2022-11-16T11:32:22.443Z,1.67
2022-11-16T11:34:54.407Z,1.10
2022-11-16T11:37:26.279Z,0.60
2022-11-16T11:40:18.109Z,0.70
2022-11-16T11:42:54.538Z,0.97
2022-11-16T11:45:28.943Z,1.30
2022-11-16T11:48:02.059Z,0.90
2022-11-16T11:50:43.836Z,0.97
2022-11-16T11:53:22.623Z,1.40
2022-11-16T11:55:58.269Z,0.90
2022-11-16T11:58:31.085Z,0.60
2022-11-16T12:01:19.552Z,0.80
2022-11-16T12:04:11.167Z,0.90
2022-11-16T12:06:44.701Z,0.73
2022-11-16T12:09:24.937Z,0.60
2022-11-16T12:12:14.365Z,1.60
2022-11-16T12:14:57.203Z,1.17
2022-11-16T12:17:33.897Z,1.10
2022-11-16T12:20:17.097Z,0.80
2022-11-16T12:23:04.184Z,0.80
2022-11-16T12:25:41.391Z,0.60
2022-11-16T12:28:20.129Z,0.70
2022-11-16T12:30:57.387Z,1.13
2022-11-16T12:33:35.348Z,0.77
2022-11-16T12:36:08.332Z,0.60
2022-11-16T12:38:52.912Z,0.80
2022-11-16T12:41:46.901Z,0.70
2022-11-16T12:44:20.929Z,0.93
2022-11-16T12:47:00.082Z,0.60
2022-11-16T12:49:53.341Z,0.60
2022-11-16T12:52:40.500Z,0.60
2022-11-16T12:55:25.902Z,0.97
2022-11-16T12:58:11.336Z,0.70
2022-11-16T13:00:56.846Z,0.40
2022-11-16T13:03:32.724Z,0.70
2022-11-16T13:06:04.730Z,0.50
2022-11-16T13:08:43.072Z,1.00
2022-11-16T13:11:16.605Z,0.50
2022-11-16T13:13:52.637Z,0.90
2022-11-16T13:16:24.141Z,0.70
2022-11-16T13:18:56.185Z,0.60
2022-11-16T13:21:40.875Z,0.40
2022-11-16T13:24:25.627Z,0.60
2022-11-16T13:27:06.126Z,0.90
2022-11-16T13:29:41.794Z,0.67
2022-11-16T13:32:18.424Z,0.60
2022-11-16T13:34:48.004Z,0.70
2022-11-16T13:37:44.922Z,0.67
2022-11-16T13:40:25.307Z,0.80
2022-11-16T13:43:04.220Z,0.60
2022-11-16T13:45:37.148Z,0.77
2022-11-16T13:48:18.361Z,0.87
2022-11-16T13:50:52.225Z,0.87
2022-11-16T13:54:42.785Z,0.50
2022-11-16T13:56:16.032Z,1.00
2022-11-16T13:58:47.568Z,0.70
2022-11-16T14:01:16.363Z,0.53
2022-11-16T14:03:47.311Z,0.60
2022-11-16T14:07:03.109Z,0.97
2022-11-16T14:09:45.017Z,0.90
2022-11-16T14:12:58.509Z,0.70
2022-11-16T14:15:31.832Z,0.50
2022-11-16T14:18:02.952Z,0.77
2022-11-16T14:20:53.752Z,0.60
2022-11-16T14:23:36.164Z,0.70
2022-11-16T14:26:18.913Z,0.77
2022-11-16T14:29:12.177Z,0.80
2022-11-16T14:31:53.299Z,0.70
2022-11-16T14:34:25.044Z,0.97
2022-11-16T14:36:54.924Z,0.60
2022-11-16T14:39:32.017Z,1.10
2022-11-16T14:42:03.788Z,1.03
2022-11-16T14:44:35.623Z,1.10
2022-11-16T14:47:04.871Z,0.90
2022-11-16T14:49:36.894Z,1.03
2022-11-16T14:52:08.287Z,1.17
2022-11-16T14:54:40.712Z,1.73
2022-11-16T14:57:18.032Z,1.27
2022-11-16T14:59:46.011Z,0.93
2022-11-16T15:02:20.272Z,1.43
2022-11-16T15:04:49.732Z,1.57
2022-11-16T15:07:20.074Z,1.17
2022-11-16T15:09:51.383Z,1.60
2022-11-16T15:12:39.335Z,1.33
2022-11-16T15:15:12.987Z,1.50
2022-11-16T15:17:42.507Z,1.00
2022-11-16T15:20:19.600Z,1.20
2022-11-16T15:22:52.940Z,1.23
2022-11-16T15:25:30.757Z,1.30
2022-11-16T15:28:00.549Z,1.23
2022-11-16T15:30:31.127Z,1.37
2022-11-16T15:32:59.108Z,1.60
2022-11-16T15:35:31.081Z,1.70
2022-11-16T15:38:14.806Z,1.33
2022-11-16T15:40:51.353Z,1.10
2022-11-16T15:43:21.212Z,1.50
2022-11-16T15:45:50.232Z,1.00
2022-11-16T15:48:20.719Z,1.20
2022-11-16T15:51:05.672Z,1.80
2022-11-16T15:53:40.708Z,1.83
2022-11-16T15:56:11.829Z,1.90
2022-11-16T15:58:41.816Z,2.23
2022-11-16T16:01:10.687Z,2.53
2022-11-16T16:03:39.446Z,2.43
2022-11-16T16:06:09.427Z,2.30
2022-11-16T16:08:41.684Z,2.50
2022-11-16T16:11:27.299Z,2.90
2022-11-16T16:13:59.962Z,3.20
2022-11-16T16:16:31.484Z,2.53
2022-11-16T16:19:08.162Z,3.10
2022-11-16T16:21:45.735Z,2.43
2022-11-16T16:24:37.531Z,3.50
2022-11-16T16:27:15.031Z,2.40
2022-11-16T16:29:43.203Z,2.60
2022-11-16T16:32:18.076Z,2.20
2022-11-16T16:34:46.097Z,2.27
2022-11-16T16:37:16.632Z,2.07
2022-11-16T16:39:46.153Z,2.90
2022-11-16T16:42:16.360Z,1.67
2022-11-16T16:44:45.777Z,2.30
2022-11-16T16:47:14.341Z,2.97
2022-11-16T16:49:42.469Z,2.73
2022-11-16T16:52:13.467Z,2.50
2022-11-16T16:54:42.184Z,2.50
2022-11-16T16:57:15.773Z,2.47
2022-11-16T16:59:45.087Z,3.23
2022-11-16T17:02:16.136Z,2.80
2022-11-16T17:04:46.421Z,3.00
2022-11-16T17:07:14.491Z,2.50
2022-11-16T17:09:43.266Z,3.40
2022-11-16T17:12:11.813Z,2.87
2022-11-16T17:14:41.295Z,3.00
2022-11-16T17:17:10.140Z,2.03
2022-11-16T17:19:38.209Z,2.50
2022-11-16T17:22:06.243Z,2.80
2022-11-16T17:24:35.704Z,4.87
2022-11-16T17:27:04.535Z,3.77
2022-11-16T17:29:32.592Z,4.00
2022-11-16T17:32:02.154Z,3.30
2022-11-16T17:34:30.174Z,3.00
2022-11-16T17:36:58.367Z,2.60
2022-11-16T17:39:26.537Z,2.30
2022-11-16T17:41:54.690Z,3.40
2022-11-16T17:44:22.751Z,4.07
2022-11-16T17:46:50.914Z,3.47
2022-11-16T17:49:20.345Z,2.40
2022-11-16T17:51:48.604Z,2.60
2022-11-16T17:54:16.587Z,2.63
2022-11-16T17:56:44.735Z,3.00
2022-11-16T17:59:12.721Z,2.40
2022-11-16T18:01:40.829Z,2.13
2022-11-16T18:04:08.866Z,1.57
2022-11-16T18:06:39.406Z,2.10
2022-11-16T18:09:07.507Z,2.53
2022-11-16T18:11:35.890Z,2.30
2022-11-16T18:14:05.509Z,2.27
2022-11-16T18:16:34.589Z,2.40
2022-11-16T18:19:04.716Z,1.90
2022-11-16T18:21:34.136Z,2.30
2022-11-16T18:24:03.616Z,2.33
2022-11-16T18:26:31.753Z,3.17
2022-11-16T18:28:59.754Z,2.03
2022-11-16T18:31:28.081Z,2.00
2022-11-16T18:33:56.784Z,2.20
2022-11-16T18:36:24.851Z,2.50
2022-11-16T18:38:53.033Z,2.27
2022-11-16T18:41:25.460Z,1.77
2022-11-16T18:43:55.405Z,2.00
2022-11-16T18:46:25.502Z,2.33
2022-11-16T18:48:54.027Z,2.20
2022-11-16T18:51:23.061Z,2.60
2022-11-16T18:53:51.529Z,3.90
2022-11-16T18:56:20.609Z,3.60
2022-11-16T18:58:51.971Z,2.50
2022-11-16T19:01:23.140Z,2.20
2022-11-16T19:03:52.280Z,2.63
2022-11-16T19:06:21.344Z,2.97
2022-11-16T19:08:56.225Z,3.53
2022-11-16T19:11:24.961Z,2.63
2022-11-16T19:13:56.865Z,3.87
2022-11-16T19:16:26.102Z,3.60
2022-11-16T19:18:54.371Z,3.23
2022-11-16T19:21:23.482Z,3.70
2022-11-16T19:23:53.543Z,4.37
2022-11-16T19:26:23.724Z,4.50
2022-11-16T19:28:54.378Z,4.57
2022-11-16T19:31:24.690Z,3.50
2022-11-16T19:33:56.954Z,3.70
2022-11-16T19:36:26.161Z,3.97
2022-11-16T19:38:54.954Z,4.67
2022-11-16T19:41:27.486Z,3.93
2022-11-16T19:43:59.927Z,4.70
2022-11-16T19:46:29.359Z,5.10
2022-11-16T19:48:57.884Z,2.90
2022-11-16T19:51:27.875Z,3.53
2022-11-16T19:53:56.720Z,4.40
2022-11-16T19:56:25.613Z,3.50
2022-11-16T19:58:54.010Z,3.50
2022-11-16T20:01:27.501Z,4.20
2022-11-16T20:03:57.513Z,4.70
2022-11-16T20:06:28.988Z,4.03
2022-11-16T20:09:00.516Z,3.47
2022-11-16T20:11:30.279Z,4.13
2022-11-16T20:13:59.801Z,3.70
2022-11-16T20:16:38.123Z,3.57
2022-11-16T20:19:08.067Z,3.57
2022-11-16T20:21:38.403Z,3.83
2022-11-16T20:24:10.695Z,3.73
2022-11-16T20:26:43.760Z,3.80
2022-11-16T20:29:12.812Z,3.80
2022-11-16T20:31:42.944Z,4.17
2022-11-16T20:34:14.546Z,3.60
2022-11-16T20:36:46.415Z,4.00
2022-11-16T20:39:15.884Z,3.73
2022-11-16T20:41:44.906Z,4.10
2022-11-16T20:44:16.852Z,5.03
2022-11-16T20:46:46.815Z,3.70
2022-11-16T20:49:15.112Z,4.47
2022-11-16T20:51:43.405Z,4.17
2022-11-16T20:54:11.525Z,4.13
2022-11-16T20:56:39.657Z,3.27
2022-11-16T20:59:07.829Z,3.40
2022-11-16T21:01:36.713Z,3.20
2022-11-16T21:04:07.531Z,3.20
2022-11-16T21:06:35.945Z,4.20
2022-11-16T21:09:05.337Z,3.97
2022-11-16T21:11:54.796Z,4.20
2022-11-16T21:14:22.630Z,3.90
2022-11-16T21:16:50.955Z,3.57
2022-11-16T21:19:20.576Z,3.97
2022-11-16T21:21:48.618Z,3.50
2022-11-16T21:24:17.608Z,3.87
2022-11-16T21:26:45.759Z,3.50
2022-11-16T21:29:13.903Z,6.00
2022-11-16T21:31:41.898Z,3.50
2022-11-16T21:34:09.910Z,4.10
2022-11-16T21:36:39.394Z,3.57
2022-11-16T21:39:08.080Z,4.00
2022-11-16T21:41:36.152Z,4.03
2022-11-16T21:44:04.378Z,5.03
2022-11-16T21:46:32.566Z,4.27
2022-11-16T21:49:00.732Z,3.80
2022-11-16T21:51:29.168Z,4.30
2022-11-16T21:53:58.532Z,3.73
2022-11-16T21:56:27.270Z,3.20
2022-11-16T21:58:55.636Z,3.50
2022-11-16T22:01:24.590Z,3.90
2022-11-16T22:04:06.552Z,4.07
2022-11-16T22:06:52.000Z,3.73
2022-11-16T22:09:21.843Z,5.00
2022-11-16T22:11:49.838Z,4.07
2022-11-16T22:14:17.864Z,3.70
2022-11-16T22:16:45.891Z,4.07
2022-11-16T22:19:13.929Z,4.30
2022-11-16T22:21:41.949Z,4.50
2022-11-16T22:24:10.126Z,4.20
2022-11-16T22:26:41.096Z,5.20
2022-11-16T22:29:09.176Z,3.60
2022-11-16T22:31:37.222Z,4.20
2022-11-16T22:34:05.402Z,4.10
2022-11-16T22:36:33.430Z,4.27
2022-11-16T22:39:02.550Z,4.37
2022-11-16T22:41:30.771Z,4.20
2022-11-16T22:44:00.201Z,4.20
2022-11-16T22:46:28.229Z,4.20
2022-11-16T22:48:56.259Z,3.67
2022-11-16T22:51:26.028Z,4.03
2022-11-16T22:53:54.915Z,4.00
2022-11-16T22:56:23.659Z,4.23
2022-11-16T22:58:51.818Z,3.30
2022-11-16T23:01:21.793Z,3.57
2022-11-16T23:03:49.981Z,4.90
2022-11-16T23:06:18.423Z,4.53
2022-11-16T23:08:46.573Z,3.87
2022-11-16T23:11:34.083Z,3.70
2022-11-16T23:14:20.958Z,4.00
2022-11-16T23:16:50.490Z,4.30
2022-11-16T23:19:38.050Z,4.07
2022-11-16T23:22:23.863Z,3.27
2022-11-16T23:25:17.797Z,3.37
2022-11-16T23:27:51.528Z,3.90
2022-11-16T23:30:19.762Z,3.80
2022-11-16T23:32:49.578Z,3.90
2022-11-16T23:35:18.206Z,3.40
2022-11-16T23:37:56.908Z,4.13
2022-11-16T23:40:26.802Z,4.03
2022-11-16T23:43:13.135Z,3.87
2022-11-16T23:45:42.169Z,4.13
2022-11-16T23:48:13.013Z,3.50
2022-11-16T23:50:41.096Z,3.90
2022-11-16T23:53:10.513Z,3.63
2022-11-16T23:55:40.309Z,4.30
2022-11-16T23:58:12.963Z,4.10
